»·PEaware :: N7375Q 1L1-2O7

N7375Q :: 1L1-2O7

FLIGHT INFORMATION

Flight Status: Arrived
Operator: Privately registered:
United States
More flights under this callsign
Pilot: Ion I. (24133)
Aircraft: SOCATA TBM-900
(TBM9)
More flights by this aircraft type
Origin: 1L1 Lincoln Co
United States
Destination: 2O7 Independence
United States
More flights between these airports :: More routes between these airports
Route: PANAC TPH HAMBO
File this flight plan on PilotEdge
Remarks:
Altitude:
(Current/Filed)
30,000ft
Speed:
(Current/Filed)
300kts
Departed: 31-Jul-20 02:39 PM
Arrived: 31-Jul-20 03:37 PM
Distance/Time
Traveled:
190nm/0:58
Distance/Time
To Go:
Arrived

Flight Plot

Page will automatically refresh every two minutes.

Flight plan parsing failed; only flown route is shown


Map Options




Map Legend


Flown Route
Filed Route
Departure Airport
Arrival Airport
Navaid (VOR, NDB)
Fix

Horizontal Profiles

Position Reports

Time Latitude Longitude Heading Altitude Ground
Speed
31-Jul-20 14:34 37.793811 -114.420980 92 4850ft 0kts
31-Jul-20 14:35 37.793811 -114.420980 92 4850ft 0kts
31-Jul-20 14:36 37.793811 -114.420980 92 4850ft 0kts
31-Jul-20 14:37 37.793811 -114.420980 92 4850ft 0kts
31-Jul-20 14:38 37.793808 -114.420873 92 4849ft 3kts
31-Jul-20 14:39 37.782021 -114.420951 183 5013ft 113kts
31-Jul-20 14:40 37.768049 -114.449462 276 7145ft 135kts
31-Jul-20 14:40 37.775659 -114.487928 281 8955ft 143kts
31-Jul-20 14:41 37.787405 -114.537680 280 11022ft 155kts
31-Jul-20 14:43 37.802078 -114.600305 280 13395ft 168kts
31-Jul-20 14:43 37.813306 -114.648359 280 15093ft 175kts
31-Jul-20 14:44 37.827320 -114.708271 281 17105ft 178kts
31-Jul-20 14:45 37.840759 -114.765982 281 18969ft 169kts
31-Jul-20 14:46 37.856933 -114.835762 282 19033ft 233kts
31-Jul-20 14:47 37.876030 -114.918233 283 19030ft 252kts
31-Jul-20 14:48 37.891528 -115.005473 273 19044ft 256kts
31-Jul-20 14:49 37.898469 -115.095890 273 19052ft 259kts
31-Jul-20 14:50 37.905402 -115.186893 273 19079ft 262kts
31-Jul-20 14:51 37.912175 -115.276511 273 20345ft 238kts
31-Jul-20 14:52 37.918082 -115.355604 274 22242ft 218kts
31-Jul-20 14:53 37.923738 -115.431909 274 24222ft 220kts
31-Jul-20 14:54 37.929346 -115.508478 275 26216ft 216kts
31-Jul-20 14:55 37.934729 -115.582566 275 28174ft 210kts
31-Jul-20 14:56 37.939953 -115.655121 275 30054ft 205kts
31-Jul-20 14:57 37.945716 -115.735779 275 30136ft 251kts
31-Jul-20 14:58 37.952226 -115.828141 275 30181ft 272kts
31-Jul-20 14:59 37.958999 -115.925264 275 30235ft 280kts
31-Jul-20 15:00 37.965841 -116.024490 275 30238ft 284kts
31-Jul-20 15:01 37.972676 -116.124840 275 30236ft 285kts
31-Jul-20 15:02 37.979445 -116.225495 275 30235ft 286kts
31-Jul-20 15:03 37.986127 -116.326102 274 30234ft 286kts
31-Jul-20 15:04 37.992744 -116.427040 274 30234ft 287kts
31-Jul-20 15:05 37.999265 -116.527887 274 30234ft 287kts
31-Jul-20 15:06 38.005711 -116.628918 274 30233ft 287kts
31-Jul-20 15:07 38.012087 -116.730261 273 30239ft 288kts
31-Jul-20 15:08 38.018377 -116.831612 273 30239ft 289kts
31-Jul-20 15:09 38.024617 -116.933597 273 30238ft 289kts
31-Jul-20 15:10 38.012914 -117.032012 239 30244ft 292kts
31-Jul-20 15:11 37.947029 -117.095226 214 29970ft 309kts
31-Jul-20 15:12 37.873113 -117.150091 213 27958ft 305kts
31-Jul-20 15:13 37.800467 -117.203655 211 25954ft 302kts
31-Jul-20 15:14 37.728237 -117.256787 210 23950ft 300kts
31-Jul-20 15:15 37.656538 -117.309367 210 21954ft 298kts
31-Jul-20 15:16 37.585053 -117.361714 209 19950ft 296kts
31-Jul-20 15:17 37.516969 -117.411461 209 19212ft 261kts
31-Jul-20 15:18 37.454565 -117.456970 209 19204ft 268kts
31-Jul-20 15:19 37.388561 -117.504997 209 19165ft 278kts
31-Jul-20 15:20 37.318717 -117.555706 209 17802ft 307kts
31-Jul-20 15:21 37.243577 -117.610130 209 15804ft 313kts
31-Jul-20 15:22 37.178232 -117.673667 228 15045ft 282kts
31-Jul-20 15:23 37.129176 -117.746384 228 15044ft 268kts
31-Jul-20 15:24 37.118738 -117.838543 268 14396ft 286kts
31-Jul-20 15:25 37.119424 -117.938879 268 13399ft 288kts
31-Jul-20 15:26 37.130249 -118.037943 282 12194ft 293kts
31-Jul-20 15:27 37.141021 -118.138076 262 10177ft 293kts
31-Jul-20 15:28 37.119440 -118.227115 216 7087ft 269kts
31-Jul-20 15:29 37.064528 -118.274105 198 6043ft 209kts
31-Jul-20 15:30 37.007929 -118.270429 170 5671ft 216kts
31-Jul-20 15:31 36.947707 -118.257764 170 4944ft 203kts
31-Jul-20 15:32 36.902615 -118.248028 170 4948ft 116kts
31-Jul-20 15:33 36.877022 -118.236749 158 4994ft 97kts
31-Jul-20 15:34 36.851559 -118.223140 162 4860ft 102kts
31-Jul-20 15:35 36.825939 -118.209986 159 4097ft 95kts
31-Jul-20 15:36 36.811407 -118.202379 156 3901ft 18kts
31-Jul-20 15:37 36.810120 -118.202526 155 3901ft 0kts
31-Jul-20 15:38 36.810120 -118.202526 155 3901ft 0kts
31-Jul-20 15:39 36.810120 -118.202526 155 3901ft 0kts
31-Jul-20 15:40 36.810120 -118.202526 155 3901ft 0kts
31-Jul-20 15:41 36.810120 -118.202526 155 3901ft 0kts
31-Jul-20 15:42 36.810120 -118.202526 155 3901ft 0kts
31-Jul-20 15:43 36.810120 -118.202526 155 3901ft 0kts
31-Jul-20 15:44 36.810120 -118.202526 155 3901ft 0kts
31-Jul-20 15:45 36.810120 -118.202526 155 3901ft 0kts
31-Jul-20 15:46 36.810120 -118.202526 155 3901ft 0kts
31-Jul-20 15:47 36.810120 -118.202526 155 3901ft 0kts
31-Jul-20 15:48 36.810120 -118.202526 155 3901ft 0kts
31-Jul-20 15:49 36.810120 -118.202526 155 3901ft 0kts
31-Jul-20 15:50 36.810120 -118.202526 155 3901ft 0kts

Navigation Log

Ident Type
Flight plan parsing failed, navigation log unavailable